Time;durP1;ratioP1;P1;durP2;ratioP2;P2;SDS_P1;SDS_P2;PMS_P1;PMS_P2;Temp;Humidity;BMP_temperature;BMP_pressure;BME280_temperature;BME280_humidity;BME280_pressure;Samples;Min_cycle;Max_cycle;Signal;HPM_P1;HPM_P2
2022/06/10 00:01:44;;;;;;;5.95;2.00;;;20.80;96.20;;;;;;4783503;24;20798;-91
2022/06/10 00:04:44;;;;;;;6.70;2.65;;;20.80;96.70;;;;;;4777273;30;20067;-91
2022/06/10 00:08:17;;;;;;;7.00;2.47;;;20.80;96.20;;;;;;4942593;24;20055;-91
2022/06/10 00:27:04;;;;;;;3.65;1.83;;;20.80;96.00;;;;;;5094758;24;20051;-91
2022/06/10 00:35:34;;;;;;;6.35;2.55;;;22.00;96.60;;;;;;4904868;24;20199;-92
2022/06/10 00:52:41;;;;;;;6.20;2.38;;;20.80;95.90;;;;;;5180319;24;20639;-92
2022/06/10 02:05:13;;;;;;;6.45;2.45;;;20.70;96.20;;;;;;3616628;24;20045;31
2022/06/10 02:11:16;;;;;;;6.70;2.50;;;20.20;97.00;;;;;;4796911;24;20066;-89
2022/06/10 02:14:07;;;;;;;7.78;2.83;;;20.20;97.30;;;;;;4927305;24;20082;-91
2022/06/10 02:26:13;;;;;;;6.55;2.88;;;20.80;96.30;;;;;;5569836;24;20098;-89
2022/06/10 03:19:35;;;;;;;6.20;2.90;;;20.80;96.40;;;;;;5777804;24;20394;-91
2022/06/10 04:38:37;;;;;;;7.55;3.33;;;20.60;96.60;;;;;;3452675;24;20422;-90
2022/06/10 05:05:28;;;;;;;8.90;3.35;;;20.60;97.20;;;;;;908391;24;20305;-90
2022/06/10 05:08:04;;;;;;;8.90;3.67;;;20.70;96.90;;;;;;4770675;24;20069;-90
2022/06/10 05:10:39;;;;;;;9.75;3.63;;;20.80;97.10;;;;;;4776540;30;20031;-91
2022/06/10 05:13:17;;;;;;;7.43;3.38;;;20.70;97.10;;;;;;4776790;30;20806;-90
2022/06/10 05:15:46;;;;;;;7.10;3.30;;;20.80;97.80;;;;;;4776776;30;20523;-91
2022/06/10 05:18:19;;;;;;;6.68;3.55;;;20.90;96.90;;;;;;4776411;30;20236;-90
2022/06/10 05:20:49;;;;;;;8.48;3.50;;;23.00;97.30;;;;;;4775714;30;20698;-90
2022/06/10 05:25:40;;;;;;;6.90;3.42;;;20.90;96.30;;;;;;4788707;24;20081;-91
2022/06/10 05:28:07;;;;;;;8.27;4.25;;;21.10;97.10;;;;;;4775839;30;20651;-91
2022/06/10 05:30:43;;;;;;;8.60;3.35;;;20.90;96.70;;;;;;4775556;30;20388;-91
2022/06/10 05:33:15;;;;;;;6.57;3.10;;;20.90;96.60;;;;;;4775679;30;20031;-91
2022/06/10 05:35:42;;;;;;;7.22;3.38;;;21.00;96.30;;;;;;4775734;30;20059;-91
2022/06/10 05:38:08;;;;;;;8.95;3.65;;;20.90;96.70;;;;;;4781298;24;20191;-90
2022/06/10 05:42:04;;;;;;;8.00;3.72;;;20.80;97.40;;;;;;4775285;30;20024;-91
2022/06/10 05:43:53;;;;;;;7.90;3.47;;;20.90;97.50;;;;;;4776659;30;21024;-91
2022/06/10 05:46:36;;;;;;;7.72;3.80;;;20.90;96.40;;;;;;4781916;24;20161;-92
2022/06/10 05:51:36;;;;;;;7.57;3.42;;;20.80;97.20;;;;;;4780889;24;20573;-89
2022/06/10 05:54:08;;;;;;;8.45;3.95;;;24.20;98.70;;;;;;4781838;24;20059;-91
2022/06/10 05:59:08;;;;;;;8.23;4.45;;;20.80;97.70;;;;;;4781283;24;20697;-91
2022/06/10 06:04:09;;;;;;;8.02;3.53;;;;;;;;;;4821826;24;20059;-91
2022/06/10 06:06:41;;;;;;;8.25;4.03;;;20.80;97.10;;;;;;4775740;29;20032;-90
2022/06/10 06:09:09;;;;;;;9.35;4.43;;;19.60;97.80;;;;;;4783612;24;20061;-92
2022/06/10 06:11:46;;;;;;;8.00;3.72;;;20.30;98.60;;;;;;4782101;24;20078;-89
2022/06/10 06:14:18;;;;;;;9.15;3.58;;;20.30;98.70;;;;;;4779896;30;20226;-92
2022/06/10 06:19:50;;;;;;;8.52;3.70;;;21.90;98.80;;;;;;4803434;24;20691;-91
2022/06/10 06:22:25;;;;;;;9.15;3.70;;;20.80;98.30;;;;;;4781237;30;20370;-90
2022/06/10 06:24:54;;;;;;;7.80;3.75;;;20.70;98.60;;;;;;4776371;30;20028;-91
2022/06/10 06:27:27;;;;;;;7.00;3.60;;;20.90;97.80;;;;;;4776385;30;20027;-91
2022/06/10 06:30:00;;;;;;;9.27;3.65;;;20.90;98.30;;;;;;4775721;30;20419;-91
2022/06/10 06:32:41;;;;;;;10.82;5.05;;;20.50;98.70;;;;;;4774680;30;20023;-91
2022/06/10 06:37:49;;;;;;;10.67;4.83;;;19.70;99.90;;;;;;4781689;24;20066;-92
2022/06/10 06:40:29;;;;;;;9.07;4.68;;;19.40;99.90;;;;;;4774805;30;20272;-92
2022/06/10 06:43:02;;;;;;;9.85;5.43;;;19.40;99.90;;;;;;4775244;30;20074;-92
2022/06/10 06:45:43;;;;;;;13.37;7.70;;;18.90;99.90;;;;;;4795718;24;20047;-90
2022/06/10 06:50:52;;;;;;;13.02;5.97;;;18.80;99.90;;;;;;4780427;24;20507;-91
2022/06/10 06:53:26;;;;;;;9.32;4.40;;;18.60;99.90;;;;;;4774765;30;20506;-92
2022/06/10 06:55:53;;;;;;;10.68;5.05;;;18.50;99.90;;;;;;4774918;30;20051;-90
2022/06/10 06:58:22;;;;;;;11.52;4.88;;;18.50;99.90;;;;;;4775730;30;20042;-90
2022/06/10 07:00:48;;;;;;;10.70;4.95;;;;;;;;;;4774038;30;20096;-90
2022/06/10 07:03:20;;;;;;;11.20;5.78;;;18.60;99.90;;;;;;4780076;24;20384;-90
2022/06/10 07:06:02;;;;;;;9.05;4.53;;;18.50;99.90;;;;;;4773640;30;20546;-91
2022/06/10 07:08:34;;;;;;;7.85;4.60;;;18.70;99.90;;;;;;4773695;30;20027;-89
2022/06/10 07:11:06;;;;;;;8.23;3.97;;;18.50;99.90;;;;;;4773879;30;20032;-89
2022/06/10 07:13:32;;;;;;;9.38;4.45;;;18.50;99.90;;;;;;4774908;30;20223;-90
2022/06/10 07:16:01;;;;;;;10.07;5.18;;;18.70;99.90;;;;;;4773657;30;20040;-91
2022/06/10 07:18:40;;;;;;;10.18;4.43;;;18.70;99.90;;;;;;4782823;24;20306;-89
2022/06/10 07:21:18;;;;;;;8.98;4.07;;;19.30;99.90;;;;;;4769769;24;20341;-89
2022/06/10 07:23:47;;;;;;;11.30;5.50;;;18.90;99.90;;;;;;4776979;24;20051;-89
2022/06/10 07:29:06;;;;;;;10.07;4.53;;;19.10;99.90;;;;;;4782768;24;20062;-90
2022/06/10 07:36:50;;;;;;;10.57;4.95;;;19.20;99.90;;;;;;4783621;24;20189;-90
2022/06/10 07:39:34;;;;;;;23.15;12.02;;;19.30;99.90;;;;;;4778374;30;20035;-89
2022/06/10 07:42:03;;;;;;;11.68;5.35;;;19.40;99.90;;;;;;4795250;24;20058;-90
2022/06/10 07:49:39;;;;;;;10.57;5.10;;;19.30;99.90;;;;;;4806676;24;20062;-89
2022/06/10 07:52:09;;;;;;;10.73;5.38;;;19.50;99.90;;;;;;4785078;24;20376;-89
2022/06/10 07:54:47;;;;;;;8.70;4.78;;;19.40;99.90;;;;;;4778818;30;20304;-89
2022/06/10 07:57:13;;;;;;;10.05;5.25;;;19.80;99.90;;;;;;4777983;30;20028;-89
2022/06/10 07:59:42;;;;;;;10.38;5.63;;;19.60;99.90;;;;;;4777056;30;20546;-88
2022/06/10 08:02:09;;;;;;;9.93;5.82;;;19.90;99.90;;;;;;4776261;30;20041;-89
2022/06/10 08:04:53;;;;;;;9.00;4.75;;;19.90;99.90;;;;;;4780370;30;20031;-91
2022/06/10 08:07:25;;;;;;;9.73;5.50;;;20.60;99.90;;;;;;4787600;30;20041;-90
2022/06/10 08:10:27;;;;;;;9.75;5.55;;;20.10;99.90;;;;;;4784246;24;20054;-90
2022/06/10 08:13:07;;;;;;;10.20;5.25;;;19.60;99.90;;;;;;4777476;30;20052;-89
2022/06/10 08:15:49;;;;;;;9.52;5.50;;;20.40;99.90;;;;;;4777261;30;20040;-89
2022/06/10 08:18:39;;;;;;;12.25;6.05;;;20.30;99.90;;;;;;4776216;30;20331;-89
2022/06/10 08:23:43;;;;;;;8.80;4.40;;;20.00;99.90;;;;;;4782326;24;20063;-91
2022/06/10 08:26:10;;;;;;;9.05;4.97;;;20.00;99.90;;;;;;4782102;24;20059;-90
2022/06/10 08:28:51;;;;;;;9.90;5.03;;;20.10;99.90;;;;;;4775411;29;20019;-91
2022/06/10 08:31:30;;;;;;;9.65;5.47;;;20.10;99.80;;;;;;4823709;24;20074;-91
2022/06/10 08:33:59;;;;;;;11.10;5.10;;;20.20;99.90;;;;;;4775872;30;20287;-91
2022/06/10 08:36:25;;;;;;;11.23;6.00;;;;;;;;;;4781728;24;20074;-90
2022/06/10 08:38:51;;;;;;;9.38;5.03;;;;;;;;;;4775902;30;20027;-91
2022/06/10 08:45:09;;;;;;;9.85;4.82;;;20.50;99.60;;;;;;4781301;24;20052;-90
2022/06/10 08:48:30;;;;;;;9.95;5.28;;;20.60;99.90;;;;;;4774990;30;20066;-90
2022/06/10 08:51:45;;;;;;;12.32;5.50;;;21.90;99.90;;;;;;4775733;30;20223;-89
2022/06/10 08:54:40;;;;;;;10.10;5.45;;;21.40;98.10;;;;;;4736953;30;20044;-89
2022/06/10 08:58:00;;;;;;;9.77;5.78;;;21.40;98.40;;;;;;4705408;30;20124;-91
2022/06/10 09:00:52;;;;;;;10.43;5.15;;;21.80;96.80;;;;;;4704915;30;20079;-89
2022/06/10 09:03:39;;;;;;;11.45;5.75;;;24.40;96.40;;;;;;4705619;30;20036;-90
2022/06/10 09:06:25;;;;;;;10.68;5.53;;;24.10;95.70;;;;;;4705395;30;20036;-89
2022/06/10 09:08:56;;;;;;;12.85;6.32;;;23.30;95.00;;;;;;4753561;24;20242;-89
2022/06/10 09:11:58;;;;;;;11.27;6.55;;;22.60;94.70;;;;;;4775406;30;20047;-89
2022/06/10 09:14:34;;;;;;;12.98;5.82;;;23.00;94.20;;;;;;4890175;24;20259;-91
2022/06/10 09:17:21;;;;;;;10.73;5.75;;;23.30;93.00;;;;;;4756234;30;20089;-89
2022/06/10 09:20:02;;;;;;;10.88;6.25;;;23.10;92.40;;;;;;4787935;29;20030;-89
2022/06/10 09:23:24;;;;;;;10.52;6.10;;;23.10;93.20;;;;;;4787398;29;20040;-90
2022/06/10 09:25:53;;;;;;;11.23;6.53;;;23.90;91.80;;;;;;4756576;30;20347;-88
2022/06/10 09:28:28;;;;;;;11.95;6.60;;;23.10;91.80;;;;;;4757392;30;20020;-87
2022/06/10 09:31:37;;;;;;;10.82;6.45;;;23.00;91.60;;;;;;4757741;30;20028;-90
2022/06/10 09:58:08;;;;;;;10.00;5.90;;;23.70;90.10;;;;;;4823323;24;20055;-88
2022/06/10 10:01:08;;;;;;;10.07;5.30;;;23.80;89.20;;;;;;4786476;24;20071;-89
2022/06/10 10:04:32;;;;;;;11.57;5.85;;;23.90;90.30;;;;;;4749182;30;20316;-89
2022/06/10 10:07:29;;;;;;;10.30;5.13;;;23.10;89.60;;;;;;4783866;24;20054;-89
2022/06/10 10:10:32;;;;;;;12.07;5.82;;;22.40;89.90;;;;;;4800655;24;20059;-90
2022/06/10 10:13:44;;;;;;;14.93;7.05;;;23.50;90.50;;;;;;4779859;30;20642;-88
2022/06/10 10:21:45;;;;;;;12.15;6.78;;;23.30;89.70;;;;;;4828601;24;20691;-88
2022/06/10 10:24:17;;;;;;;12.65;7.22;;;25.30;90.40;;;;;;4775332;30;20488;-87
2022/06/10 10:27:01;;;;;;;19.10;8.32;;;23.20;90.40;;;;;;4773925;30;20416;-88
2022/06/10 10:29:48;;;;;;;14.40;8.13;;;23.20;90.70;;;;;;4773341;30;20035;-87
2022/06/10 10:32:28;;;;;;;15.10;8.38;;;23.10;90.00;;;;;;4778395;24;20066;-87
2022/06/10 10:38:06;;;;;;;16.05;9.27;;;22.20;93.90;;;;;;4785543;24;20090;-89
2022/06/10 10:40:48;;;;;;;15.90;9.13;;;21.80;95.50;;;;;;4776076;30;20747;-90
2022/06/10 10:43:42;;;;;;;15.55;8.95;;;20.70;96.90;;;;;;4775585;30;20039;-89
2022/06/10 10:46:26;;;;;;;14.23;8.35;;;20.30;96.10;;;;;;4778660;30;20019;-89
2022/06/10 10:48:51;;;;;;;13.82;7.80;;;21.10;98.70;;;;;;4791159;30;20036;-88
2022/06/10 10:51:50;;;;;;;13.10;7.97;;;21.10;97.70;;;;;;4789985;29;20035;-89
2022/06/10 10:54:50;;;;;;;16.60;8.85;;;21.20;97.90;;;;;;4775166;24;20058;-88
2022/06/10 10:58:17;;;;;;;16.98;8.05;;;21.30;98.40;;;;;;4787852;30;20050;-89
2022/06/10 11:00:56;;;;;;;15.05;8.75;;;21.30;97.40;;;;;;4732412;30;20109;-90
2022/06/10 11:06:01;;;;;;;15.20;7.85;;;20.90;98.30;;;;;;4779386;29;20044;-90
2022/06/10 11:08:34;;;;;;;11.30;7.03;;;20.80;99.60;;;;;;4778398;30;20099;-90
2022/06/10 11:12:10;;;;;;;14.82;6.78;;;20.50;99.90;;;;;;4731277;24;1961995;-89
2022/06/10 11:14:40;;;;;;;15.00;7.65;;;20.90;99.50;;;;;;4804384;24;20063;-89
2022/06/10 11:17:31;;;;;;;15.00;8.50;;;20.90;99.60;;;;;;4803449;24;20042;-89
2022/06/10 11:20:44;;;;;;;14.85;7.47;;;21.50;99.90;;;;;;4772652;24;20156;-89
2022/06/10 11:26:13;;;;;;;12.20;6.70;;;22.60;96.30;;;;;;4783253;24;20135;-90
2022/06/10 12:00:14;;;;;;;12.60;7.10;;;21.60;92.10;;;;;;5092224;24;20075;-90
2022/06/10 12:03:26;;;;;;;13.05;7.00;;;23.30;92.70;;;;;;4759433;30;20027;-90
2022/06/10 12:06:35;;;;;;;11.25;6.93;;;24.40;93.20;;;;;;4759450;30;20679;-90
2022/06/10 12:09:17;;;;;;;12.07;6.13;;;24.00;92.70;;;;;;4759150;30;20066;-91
2022/06/10 12:12:01;;;;;;;9.45;5.57;;;23.30;90.50;;;;;;4757234;30;20032;-89
2022/06/10 12:17:46;;;;;;;10.55;6.03;;;20.80;92.20;;;;;;4766698;24;20128;-91
2022/06/10 12:23:06;;;;;;;12.60;6.60;;;23.80;92.80;;;;;;4817833;24;20063;-89
2022/06/10 12:25:57;;;;;;;11.40;5.97;;;24.80;93.20;;;;;;4777093;30;20035;-90
2022/06/10 12:28:34;;;;;;;10.25;5.65;;;25.50;90.80;;;;;;4777484;30;20031;-88
2022/06/10 12:31:56;;;;;;;9.32;5.32;;;25.80;90.10;;;;;;4784731;24;20530;-89
2022/06/10 12:34:57;;;;;;;9.48;5.18;;;25.00;88.50;;;;;;4783905;24;20219;-89
2022/06/10 12:37:44;;;;;;;9.38;5.20;;;24.70;90.20;;;;;;4783531;24;20071;-90
2022/06/10 12:41:06;;;;;;;7.93;4.28;;;24.40;90.70;;;;;;4777443;30;20677;-91
2022/06/10 12:53:31;;;;;;;7.17;3.80;;;23.10;91.30;;;;;;4905453;24;20062;-90
2022/06/10 12:59:07;;;;;;;6.53;3.05;;;21.60;92.40;;;;;;4693327;30;20036;-90
2022/06/10 13:02:07;;;;;;;6.25;3.08;;;21.50;92.50;;;;;;4720992;30;20029;-90
2022/06/10 13:09:46;;;;;;;6.72;3.63;;;21.40;93.00;;;;;;4863859;24;20063;-89
2022/06/10 13:12:12;;;;;;;5.95;2.67;;;21.30;93.70;;;;;;4776452;30;20070;-87
2022/06/10 13:15:17;;;;;;;9.73;4.15;;;21.20;93.40;;;;;;4777252;29;20101;-86
2022/06/10 13:18:28;;;;;;;7.72;3.67;;;21.20;93.60;;;;;;4775958;30;20031;-87
2022/06/10 13:21:15;;;;;;;10.70;5.43;;;21.80;93.90;;;;;;4776149;29;20031;-87
2022/06/10 13:23:59;;;;;;;15.68;6.47;;;21.20;94.10;;;;;;4773342;30;20032;-87
2022/06/10 13:26:27;;;;;;;18.77;7.68;;;21.30;94.20;;;;;;4774976;30;20096;-86
2022/06/10 13:29:13;;;;;;;15.63;7.55;;;21.10;93.70;;;;;;4774403;30;20527;-87
2022/06/10 13:31:54;;;;;;;10.05;5.35;;;21.00;93.80;;;;;;4779997;24;20079;-84
2022/06/10 13:34:25;;;;;;;8.68;4.32;;;21.00;94.00;;;;;;4773419;30;20762;-87
2022/06/10 13:36:55;;;;;;;8.32;4.13;;;20.70;95.00;;;;;;4773666;30;20043;-86
2022/06/10 13:39:56;;;;;;;11.10;4.45;;;20.60;95.40;;;;;;4780054;24;20087;-88
2022/06/10 13:45:39;;;;;;;9.25;4.63;;;20.50;95.80;;;;;;4782149;24;20051;-87
2022/06/10 13:48:21;;;;;;;8.82;4.53;;;20.40;96.20;;;;;;4774535;29;20704;-86
2022/06/10 13:54:21;;;;;;;8.02;4.10;;;18.70;96.10;;;;;;4785552;30;20067;-87
2022/06/10 13:57:39;;;;;;;8.02;4.50;;;20.60;96.70;;;;;;4745935;30;20048;-88
2022/06/10 14:00:52;;;;;;;9.50;4.10;;;20.50;96.70;;;;;;4762743;24;20058;-89
2022/06/10 14:03:39;;;;;;;9.55;4.63;;;21.30;97.20;;;;;;4756665;30;20048;-88
2022/06/10 14:06:36;;;;;;;8.13;4.18;;;20.80;97.20;;;;;;4757324;24;20055;-87
2022/06/10 14:09:48;;;;;;;9.18;4.63;;;22.10;97.00;;;;;;4778208;30;20101;-86
2022/06/10 14:14:43;;;;;;;8.38;4.18;;;21.20;95.60;;;;;;4780426;24;20132;-86
2022/06/10 14:17:43;;;;;;;7.43;3.65;;;21.30;95.60;;;;;;4889328;24;20580;-88
2022/06/10 14:20:22;;;;;;;6.72;3.40;;;21.80;94.90;;;;;;4774986;30;20023;-91
2022/06/10 14:23:45;;;;;;;8.05;4.22;;;21.80;94.50;;;;;;4775235;30;20564;-86
2022/06/10 14:26:11;;;;;;;8.57;4.32;;;;;;;;;;4780957;24;20055;-86
2022/06/10 14:28:51;;;;;;;7.78;4.30;;;21.70;94.20;;;;;;4777814;30;20117;-88
2022/06/10 14:31:45;;;;;;;10.13;4.82;;;21.60;94.60;;;;;;4777732;30;20019;-90
2022/06/10 14:34:30;;;;;;;10.45;4.80;;;21.50;94.80;;;;;;4778256;30;20023;-89
2022/06/10 14:37:37;;;;;;;9.32;5.22;;;21.40;95.00;;;;;;4792904;30;20112;-90
2022/06/10 14:43:01;;;;;;;9.43;4.85;;;21.10;96.70;;;;;;4796725;24;20055;-90
2022/06/10 14:45:41;;;;;;;10.00;5.28;;;21.20;97.50;;;;;;4790999;30;20035;-87
2022/06/10 14:48:06;;;;;;;10.30;6.15;;;21.00;97.30;;;;;;4786704;30;20072;-87
2022/06/10 14:50:35;;;;;;;10.52;6.07;;;20.80;98.40;;;;;;4780113;30;20023;-88
2022/06/10 15:01:21;;;;;;;13.80;7.22;;;20.30;99.90;;;;;;4777998;30;20725;-89
2022/06/10 15:03:48;;;;;;;12.30;6.55;;;20.30;99.90;;;;;;4778844;30;20042;-87
2022/06/10 15:06:25;;;;;;;12.27;6.30;;;20.40;99.90;;;;;;4779596;30;20027;-87
2022/06/10 15:08:55;;;;;;;11.25;6.82;;;20.50;99.90;;;;;;4778329;30;20045;-88
2022/06/10 15:11:34;;;;;;;11.20;6.22;;;21.00;99.90;;;;;;4781410;30;20154;-88
2022/06/10 15:14:00;;;;;;;11.15;6.40;;;20.80;99.90;;;;;;4780454;30;20039;-87
2022/06/10 15:16:40;;;;;;;12.98;7.60;;;20.60;99.90;;;;;;4780580;30;20174;-85
2022/06/10 15:19:16;;;;;;;11.82;6.70;;;20.70;99.90;;;;;;4780410;30;20032;-89
2022/06/10 15:21:47;;;;;;;10.93;6.07;;;20.70;99.90;;;;;;4783941;30;20030;-85
2022/06/10 15:24:34;;;;;;;12.13;6.10;;;20.70;99.90;;;;;;4790724;24;20059;-89
2022/06/10 15:27:00;;;;;;;13.05;7.32;;;18.90;99.90;;;;;;4790348;30;20031;-85
2022/06/10 15:29:29;;;;;;;13.65;7.43;;;20.80;99.90;;;;;;4784909;30;20023;-84
2022/06/10 15:31:56;;;;;;;13.90;8.18;;;20.40;99.90;;;;;;4778637;30;20037;-87
2022/06/10 15:34:31;;;;;;;13.63;7.22;;;20.40;99.90;;;;;;4780146;30;20041;-86
2022/06/10 15:42:30;;;;;;;9.93;5.30;;;19.80;99.90;;;;;;4777769;30;20631;-87
2022/06/10 15:44:55;;;;;;;11.13;6.22;;;19.60;99.90;;;;;;4775647;30;20031;-83
2022/06/10 15:47:24;;;;;;;10.90;5.90;;;19.50;99.90;;;;;;4774841;30;20455;-88
2022/06/10 15:49:50;;;;;;;12.35;5.65;;;19.30;99.90;;;;;;4777187;30;20027;-86
2022/06/10 15:52:24;;;;;;;10.70;5.15;;;19.20;99.90;;;;;;4782422;24;20059;-86
2022/06/10 15:57:49;;;;;;;8.80;4.20;;;19.00;99.90;;;;;;4775444;30;20122;-85
2022/06/10 16:02:46;;;;;;;8.02;4.07;;;18.80;99.90;;;;;;4773840;30;20051;-82
2022/06/10 16:05:23;;;;;;;11.15;5.57;;;18.70;99.90;;;;;;4774962;30;20038;-85
2022/06/10 16:07:52;;;;;;;10.63;5.18;;;18.70;99.90;;;;;;4773415;30;20271;-82
2022/06/10 16:10:19;;;;;;;8.43;4.57;;;18.70;99.90;;;;;;4775381;30;20035;-87
2022/06/10 16:13:03;;;;;;;9.75;4.93;;;18.80;99.90;;;;;;4788715;29;20042;-82
2022/06/10 16:15:37;;;;;;;10.02;5.28;;;18.80;99.90;;;;;;4775131;30;20272;-87
2022/06/10 16:18:34;;;;;;;9.55;4.70;;;18.80;99.90;;;;;;4774766;30;20039;-83
2022/06/10 16:21:16;;;;;;;9.25;4.50;;;18.70;99.90;;;;;;4722495;30;20067;-84
2022/06/10 16:23:43;;;;;;;9.05;5.00;;;18.60;99.90;;;;;;4722313;30;20036;-86
2022/06/10 16:26:38;;;;;;;7.85;4.03;;;18.40;99.90;;;;;;4723333;30;20044;-88
2022/06/10 16:29:27;;;;;;;9.05;3.85;;;18.30;99.90;;;;;;4737395;30;20056;-83
2022/06/10 16:32:03;;;;;;;7.88;4.57;;;18.20;99.90;;;;;;4722112;30;20105;-88
2022/06/10 16:34:29;;;;;;;8.48;4.40;;;18.20;99.90;;;;;;4722330;30;20418;-87
2022/06/10 16:37:14;;;;;;;8.68;4.47;;;18.00;99.90;;;;;;4722745;30;20065;-87
2022/06/10 16:39:40;;;;;;;8.07;4.22;;;18.00;99.90;;;;;;4766398;24;20051;-89
2022/06/10 16:42:39;;;;;;;8.27;4.35;;;18.00;99.90;;;;;;4776379;29;20091;-89
2022/06/10 16:48:28;;;;;;;8.65;4.15;;;18.00;99.90;;;;;;4777049;30;20036;-86
2022/06/10 16:51:21;;;;;;;7.50;3.75;;;18.00;99.90;;;;;;4771177;29;20127;-89
2022/06/10 16:54:18;;;;;;;;;;;;;;;;;;;;;
2022/06/10 16:56:49;;;;;;;7.15;3.78;;;17.90;99.90;;;;;;4778290;24;20074;-88
2022/06/10 17:01:03;;;;;;;;;;;;;;;;;;;;;
2022/06/10 17:06:24;;;;;;;6.03;3.47;;;19.40;99.90;;;;;;4738625;30;20043;-88
2022/06/10 17:09:05;;;;;;;8.88;4.22;;;17.90;99.90;;;;;;4757172;30;20035;-89
2022/06/10 17:11:39;;;;;;;7.78;4.32;;;18.00;99.90;;;;;;4757256;30;20679;-88
2022/06/10 17:20:57;;;;;;;7.60;3.83;;;17.70;99.90;;;;;;4774009;24;20116;-88
2022/06/10 17:29:53;;;;;;;8.07;4.43;;;17.70;99.90;;;;;;5044549;24;20063;-86
2022/06/10 17:36:20;;;;;;;8.35;3.92;;;17.80;99.90;;;;;;4719055;24;20099;-86
2022/06/10 17:39:27;;;;;;;8.13;3.28;;;17.80;99.90;;;;;;4780989;24;20131;-87
2022/06/10 17:41:53;;;;;;;7.85;4.07;;;17.50;99.90;;;;;;4774623;30;20027;-86
2022/06/10 17:44:35;;;;;;;7.50;3.53;;;21.00;99.90;;;;;;4774148;30;20119;-86
2022/06/10 17:47:23;;;;;;;8.20;3.72;;;17.80;99.90;;;;;;4773401;30;20039;-86
2022/06/10 17:49:52;;;;;;;9.95;3.97;;;17.70;99.90;;;;;;4775303;30;20053;-84
2022/06/10 17:52:27;;;;;;;8.98;4.43;;;17.80;99.90;;;;;;4774096;30;20122;-86
2022/06/10 17:55:02;;;;;;;7.45;3.10;;;17.80;99.90;;;;;;4774138;30;20551;-91
2022/06/10 17:58:02;;;;;;;11.88;3.80;;;17.80;99.90;;;;;;4773699;30;20574;-87
2022/06/10 18:00:33;;;;;;;6.97;3.22;;;17.80;99.90;;;;;;4773822;30;20035;-86
2022/06/10 18:03:05;;;;;;;10.65;3.80;;;18.00;99.90;;;;;;4775510;30;20023;-86
2022/06/10 18:06:00;;;;;;;7.25;3.13;;;17.70;99.90;;;;;;4771346;30;20602;-87
2022/06/10 18:08:38;;;;;;;6.65;2.97;;;18.10;99.90;;;;;;4772098;30;20239;-88
2022/06/10 18:11:25;;;;;;;5.90;3.05;;;17.60;99.90;;;;;;4778810;24;20058;-85
2022/06/10 18:19:45;;;;;;;7.53;3.75;;;17.60;99.90;;;;;;4788699;24;20056;-86
2022/06/10 18:22:15;;;;;;;7.55;4.00;;;17.60;99.90;;;;;;4774771;30;20114;-87
2022/06/10 18:24:42;;;;;;;8.20;3.88;;;17.60;99.90;;;;;;4775175;30;20407;-88
2022/06/10 18:27:49;;;;;;;8.18;4.28;;;17.50;99.90;;;;;;4781322;30;20054;-85
2022/06/10 18:30:29;;;;;;;8.90;4.20;;;18.20;99.90;;;;;;4746626;30;20029;-89
2022/06/10 18:32:55;;;;;;;9.68;3.75;;;17.40;99.90;;;;;;4758181;24;20085;-86
2022/06/10 18:35:35;;;;;;;6.20;3.90;;;17.30;99.90;;;;;;4782490;30;20118;-87
2022/06/10 18:38:04;;;;;;;8.38;4.07;;;17.40;99.90;;;;;;4775528;30;20038;-85
2022/06/10 18:40:48;;;;;;;7.65;4.10;;;17.30;99.90;;;;;;4775056;30;20031;-84
2022/06/10 18:43:29;;;;;;;10.52;4.55;;;17.10;99.90;;;;;;4774865;30;20058;-88
2022/06/10 18:46:20;;;;;;;8.35;4.90;;;17.10;99.90;;;;;;4774016;30;20090;-87
2022/06/10 18:48:50;;;;;;;11.25;5.07;;;17.70;99.90;;;;;;4774059;30;20035;-88
2022/06/10 18:51:37;;;;;;;9.23;5.13;;;17.10;99.90;;;;;;4773564;30;20032;-86
2022/06/10 18:57:24;;;;;;;8.77;4.35;;;16.30;99.90;;;;;;4775089;30;20095;-86
2022/06/10 18:59:53;;;;;;;8.10;4.30;;;17.10;99.90;;;;;;4773707;30;20035;-87
2022/06/10 19:02:58;;;;;;;9.85;5.10;;;17.20;99.90;;;;;;4773602;30;20063;-87
2022/06/10 19:05:36;;;;;;;8.70;4.13;;;14.90;99.90;;;;;;4773707;30;20023;-88
2022/06/10 19:08:12;;;;;;;5.47;3.03;;;17.20;99.90;;;;;;4774551;30;20556;-87
2022/06/10 19:10:43;;;;;;;8.50;3.42;;;17.20;99.90;;;;;;4779388;24;20146;-87
2022/06/10 19:13:19;;;;;;;8.93;3.30;;;17.20;99.90;;;;;;4773771;29;20027;-86
2022/06/10 19:19:02;;;;;;;8.50;3.17;;;17.30;99.90;;;;;;4981123;24;20125;-86
2022/06/10 19:21:50;;;;;;;6.47;2.95;;;17.30;99.90;;;;;;4775822;30;20026;-85
2022/06/10 19:24:43;;;;;;;5.63;3.00;;;17.20;99.90;;;;;;4783295;24;20098;-85
2022/06/10 19:33:07;;;;;;;8.55;4.45;;;17.20;99.90;;;;;;4721442;30;20083;-85
2022/06/10 19:38:39;;;;;;;7.47;3.67;;;17.40;99.90;;;;;;4961982;24;20090;-87
2022/06/10 19:41:14;;;;;;;8.65;3.85;;;17.10;99.90;;;;;;4776935;30;20092;-85
2022/06/10 19:46:40;;;;;;;6.70;3.25;;;17.00;99.90;;;;;;4974077;24;20094;-87
2022/06/10 19:49:07;;;;;;;7.20;3.90;;;17.00;99.90;;;;;;4777317;30;20084;-87
2022/06/10 20:03:14;;;;;;;6.80;3.60;;;16.80;99.90;;;;;;4824561;24;20075;-85
2022/06/10 20:05:55;;;;;;;7.40;3.67;;;16.00;99.90;;;;;;4779437;29;20047;-89
2022/06/10 20:10:56;;;;;;;7.18;3.22;;;16.80;99.90;;;;;;4797600;24;20051;-84
2022/06/10 20:13:29;;;;;;;7.90;3.58;;;16.90;99.90;;;;;;4776329;30;20640;-87
2022/06/10 20:21:49;;;;;;;8.30;4.05;;;16.90;99.90;;;;;;3034915;24;20087;-88
2022/06/10 20:27:19;;;;;;;7.55;3.58;;;16.90;99.90;;;;;;4756774;30;20027;-86
2022/06/10 20:29:57;;;;;;;7.68;3.50;;;16.90;99.90;;;;;;4741441;30;20032;-87
2022/06/10 20:35:23;;;;;;;8.75;3.55;;;16.80;99.90;;;;;;4961725;24;20622;-87
2022/06/10 20:37:49;;;;;;;9.15;3.60;;;16.80;99.90;;;;;;4781403;24;20059;-87
2022/06/10 20:40:18;;;;;;;9.43;3.70;;;16.90;99.90;;;;;;4774810;30;20582;-87
2022/06/10 20:42:44;;;;;;;9.27;4.07;;;16.80;99.90;;;;;;4782338;24;20695;-87
2022/06/10 20:45:14;;;;;;;6.32;3.40;;;16.80;99.90;;;;;;4776546;30;20030;-88
2022/06/10 20:47:49;;;;;;;6.38;3.33;;;16.30;99.90;;;;;;4775485;30;20027;-87
2022/06/10 20:53:06;;;;;;;7.80;3.63;;;16.80;99.90;;;;;;4809721;24;20093;-89
2022/06/10 20:55:45;;;;;;;6.88;3.42;;;16.80;99.90;;;;;;4775770;30;20131;-90
2022/06/10 20:58:45;;;;;;;6.40;3.15;;;16.90;99.90;;;;;;4774825;30;20035;-89
2022/06/10 21:01:35;;;;;;;7.95;3.22;;;18.10;99.90;;;;;;4781253;24;20671;-87
2022/06/10 21:07:51;;;;;;;7.80;3.80;;;18.70;99.90;;;;;;4776173;30;20038;-87
2022/06/10 21:10:54;;;;;;;7.95;3.10;;;19.30;99.90;;;;;;4774063;30;20575;-86
2022/06/10 21:13:26;;;;;;;5.93;2.55;;;19.70;99.90;;;;;;4761468;30;20035;-89
2022/06/10 21:19:15;;;;;;;7.45;3.50;;;20.00;99.90;;;;;;4776057;30;20054;-89
2022/06/10 21:21:50;;;;;;;7.05;3.35;;;20.00;99.90;;;;;;4775908;30;20035;-88
2022/06/10 21:26:51;;;;;;;5.82;2.75;;;20.10;99.90;;;;;;4810511;24;20074;-85
2022/06/10 21:29:20;;;;;;;7.00;2.92;;;20.20;99.90;;;;;;4774757;30;20039;-89
2022/06/10 21:32:01;;;;;;;5.70;2.58;;;20.20;99.90;;;;;;4773905;30;20346;-87
2022/06/10 21:34:35;;;;;;;5.22;2.70;;;20.20;99.80;;;;;;4783148;30;20252;-89
2022/06/10 21:39:45;;;;;;;6.30;2.50;;;20.10;99.80;;;;;;4795285;24;20142;-89
2022/06/10 21:45:08;;;;;;;6.50;2.65;;;20.10;99.80;;;;;;4781182;24;20124;-90
2022/06/10 21:48:02;;;;;;;6.70;2.63;;;20.40;99.80;;;;;;4773453;30;20031;-89
2022/06/10 21:50:52;;;;;;;6.40;2.90;;;21.50;99.90;;;;;;4775299;30;20035;-86
2022/06/10 21:56:35;;;;;;;7.80;3.55;;;20.10;99.90;;;;;;4774963;30;20540;-91
2022/06/10 22:04:33;;;;;;;7.65;2.90;;;19.80;99.90;;;;;;4779522;24;20239;-88
2022/06/10 22:10:25;;;;;;;6.07;2.67;;;19.40;99.90;;;;;;4775576;30;20100;-88
2022/06/10 22:12:52;;;;;;;5.45;2.40;;;20.00;99.90;;;;;;4774711;30;20110;-87
2022/06/10 22:15:27;;;;;;;6.82;2.85;;;19.80;99.90;;;;;;4773503;30;20039;-90
2022/06/10 22:21:01;;;;;;;7.10;2.50;;;20.10;99.60;;;;;;4775259;30;20445;-88
2022/06/10 22:23:39;;;;;;;4.47;2.40;;;20.20;99.60;;;;;;4773634;30;20031;-85
2022/06/10 22:26:23;;;;;;;7.53;2.97;;;20.90;99.60;;;;;;4773063;30;20066;-89
2022/06/10 22:33:51;;;;;;;6.28;2.88;;;20.60;99.00;;;;;;4778859;24;20064;-87
2022/06/10 22:36:33;;;;;;;6.80;3.28;;;20.60;98.60;;;;;;4774941;30;20291;-89
2022/06/10 22:39:05;;;;;;;7.18;2.97;;;20.50;98.80;;;;;;4773487;30;20031;-90
2022/06/10 22:41:37;;;;;;;7.43;3.05;;;20.60;98.60;;;;;;4773225;30;20130;-89
2022/06/10 22:44:16;;;;;;;6.93;3.20;;;20.60;98.60;;;;;;4773649;30;20028;-89
2022/06/10 22:47:19;;;;;;;6.93;2.88;;;20.90;98.70;;;;;;4774565;30;20594;-89
2022/06/10 22:49:48;;;;;;;7.60;3.03;;;20.60;98.60;;;;;;4824378;24;20180;-90
2022/06/10 22:52:22;;;;;;;5.93;2.50;;;20.50;98.60;;;;;;4777919;30;20035;-90
2022/06/10 22:57:38;;;;;;;4.80;2.90;;;20.30;99.30;;;;;;4778154;30;20357;-86
2022/06/10 23:00:36;;;;;;;6.38;3.25;;;20.30;98.90;;;;;;4778181;30;20103;-90
2022/06/10 23:03:47;;;;;;;7.13;3.03;;;20.20;99.10;;;;;;4758647;30;20031;-89